sensor_id;sensor_type;location;lat;lon;timestamp;P1;durP1;ratioP1;P2;durP2;ratioP2
32475;SDS011;18929;48.008;10.882;2022-09-19T00:00:41;5.20;;;1.33;;
32475;SDS011;18929;48.008;10.882;2022-09-19T00:03:09;3.22;;;1.25;;
32475;SDS011;18929;48.008;10.882;2022-09-19T00:05:37;3.75;;;1.23;;
32475;SDS011;18929;48.008;10.882;2022-09-19T00:08:05;3.13;;;1.20;;
32475;SDS011;18929;48.008;10.882;2022-09-19T00:10:36;4.45;;;1.15;;
32475;SDS011;18929;48.008;10.882;2022-09-19T00:13:05;2.22;;;1.05;;
32475;SDS011;18929;48.008;10.882;2022-09-19T00:15:34;5.07;;;1.40;;
32475;SDS011;18929;48.008;10.882;2022-09-19T00:18:02;2.92;;;1.20;;
32475;SDS011;18929;48.008;10.882;2022-09-19T00:20:30;2.50;;;1.13;;
32475;SDS011;18929;48.008;10.882;2022-09-19T00:22:59;4.95;;;1.63;;
32475;SDS011;18929;48.008;10.882;2022-09-19T00:25:43;4.22;;;1.42;;
32475;SDS011;18929;48.008;10.882;2022-09-19T00:28:11;2.47;;;1.15;;
32475;SDS011;18929;48.008;10.882;2022-09-19T00:30:38;4.28;;;1.70;;
32475;SDS011;18929;48.008;10.882;2022-09-19T00:33:05;3.45;;;1.15;;
32475;SDS011;18929;48.008;10.882;2022-09-19T00:35:32;5.82;;;1.52;;
32475;SDS011;18929;48.008;10.882;2022-09-19T00:37:59;3.92;;;1.30;;
32475;SDS011;18929;48.008;10.882;2022-09-19T00:40:26;4.70;;;1.38;;
32475;SDS011;18929;48.008;10.882;2022-09-19T00:42:53;3.47;;;1.40;;
32475;SDS011;18929;48.008;10.882;2022-09-19T00:45:22;6.15;;;1.48;;
32475;SDS011;18929;48.008;10.882;2022-09-19T00:47:49;5.30;;;1.63;;
32475;SDS011;18929;48.008;10.882;2022-09-19T00:50:23;2.10;;;1.02;;
32475;SDS011;18929;48.008;10.882;2022-09-19T00:52:54;3.83;;;1.60;;
32475;SDS011;18929;48.008;10.882;2022-09-19T00:55:25;5.60;;;1.48;;
32475;SDS011;18929;48.008;10.882;2022-09-19T00:57:55;3.90;;;1.55;;
32475;SDS011;18929;48.008;10.882;2022-09-19T01:00:28;2.60;;;1.27;;
32475;SDS011;18929;48.008;10.882;2022-09-19T01:02:57;7.35;;;1.70;;
32475;SDS011;18929;48.008;10.882;2022-09-19T01:05:25;5.38;;;1.58;;
32475;SDS011;18929;48.008;10.882;2022-09-19T01:08:09;2.75;;;1.30;;
32475;SDS011;18929;48.008;10.882;2022-09-19T01:10:56;3.97;;;1.73;;
32475;SDS011;18929;48.008;10.882;2022-09-19T01:13:37;3.90;;;1.40;;
32475;SDS011;18929;48.008;10.882;2022-09-19T01:16:14;2.08;;;0.98;;
32475;SDS011;18929;48.008;10.882;2022-09-19T01:18:46;2.92;;;1.33;;
32475;SDS011;18929;48.008;10.882;2022-09-19T01:21:26;4.10;;;1.20;;
32475;SDS011;18929;48.008;10.882;2022-09-19T01:24:10;4.20;;;1.48;;
32475;SDS011;18929;48.008;10.882;2022-09-19T01:27:15;2.40;;;1.20;;
32475;SDS011;18929;48.008;10.882;2022-09-19T01:29:56;2.50;;;1.15;;
32475;SDS011;18929;48.008;10.882;2022-09-19T01:32:28;2.70;;;1.30;;
32475;SDS011;18929;48.008;10.882;2022-09-19T01:35:01;3.67;;;1.17;;
32475;SDS011;18929;48.008;10.882;2022-09-19T01:37:32;1.90;;;1.00;;
32475;SDS011;18929;48.008;10.882;2022-09-19T01:40:03;2.47;;;1.40;;
32475;SDS011;18929;48.008;10.882;2022-09-19T01:42:35;2.47;;;1.20;;
32475;SDS011;18929;48.008;10.882;2022-09-19T01:45:15;3.30;;;0.90;;
32475;SDS011;18929;48.008;10.882;2022-09-19T01:47:45;3.33;;;1.20;;
32475;SDS011;18929;48.008;10.882;2022-09-19T01:50:18;4.93;;;1.38;;
32475;SDS011;18929;48.008;10.882;2022-09-19T01:52:59;2.75;;;1.02;;
32475;SDS011;18929;48.008;10.882;2022-09-19T01:55:32;4.07;;;1.20;;
32475;SDS011;18929;48.008;10.882;2022-09-19T01:58:07;4.78;;;0.90;;
32475;SDS011;18929;48.008;10.882;2022-09-19T02:00:41;4.25;;;1.20;;
32475;SDS011;18929;48.008;10.882;2022-09-19T02:03:16;3.05;;;1.02;;
32475;SDS011;18929;48.008;10.882;2022-09-19T02:05:51;2.58;;;1.20;;
32475;SDS011;18929;48.008;10.882;2022-09-19T02:08:27;2.95;;;0.90;;
32475;SDS011;18929;48.008;10.882;2022-09-19T02:10:57;2.72;;;1.00;;
32475;SDS011;18929;48.008;10.882;2022-09-19T02:13:29;4.57;;;1.30;;
32475;SDS011;18929;48.008;10.882;2022-09-19T02:16:00;1.73;;;1.00;;
32475;SDS011;18929;48.008;10.882;2022-09-19T02:18:34;4.70;;;1.20;;
32475;SDS011;18929;48.008;10.882;2022-09-19T02:21:06;3.22;;;0.93;;
32475;SDS011;18929;48.008;10.882;2022-09-19T02:23:38;4.10;;;1.10;;
32475;SDS011;18929;48.008;10.882;2022-09-19T02:26:12;3.05;;;1.02;;
32475;SDS011;18929;48.008;10.882;2022-09-19T02:28:43;1.55;;;0.90;;
32475;SDS011;18929;48.008;10.882;2022-09-19T02:31:13;1.00;;;0.43;;
32475;SDS011;18929;48.008;10.882;2022-09-19T02:33:41;2.03;;;0.93;;
32475;SDS011;18929;48.008;10.882;2022-09-19T02:36:13;1.65;;;0.82;;
32475;SDS011;18929;48.008;10.882;2022-09-19T02:38:44;1.55;;;0.60;;
32475;SDS011;18929;48.008;10.882;2022-09-19T02:41:18;1.10;;;0.80;;
32475;SDS011;18929;48.008;10.882;2022-09-19T02:43:49;1.48;;;0.60;;
32475;SDS011;18929;48.008;10.882;2022-09-19T02:46:24;2.17;;;0.75;;
32475;SDS011;18929;48.008;10.882;2022-09-19T02:49:03;1.70;;;0.65;;
32475;SDS011;18929;48.008;10.882;2022-09-19T02:51:34;0.87;;;0.50;;
32475;SDS011;18929;48.008;10.882;2022-09-19T02:54:06;1.67;;;0.80;;
32475;SDS011;18929;48.008;10.882;2022-09-19T02:56:36;0.90;;;0.50;;
32475;SDS011;18929;48.008;10.882;2022-09-19T02:59:07;1.02;;;0.52;;
32475;SDS011;18929;48.008;10.882;2022-09-19T03:01:40;1.15;;;0.70;;
32475;SDS011;18929;48.008;10.882;2022-09-19T03:04:11;1.77;;;0.50;;
32475;SDS011;18929;48.008;10.882;2022-09-19T03:06:43;0.97;;;0.50;;
32475;SDS011;18929;48.008;10.882;2022-09-19T03:09:17;2.55;;;0.50;;
32475;SDS011;18929;48.008;10.882;2022-09-19T03:11:48;1.77;;;0.70;;
32475;SDS011;18929;48.008;10.882;2022-09-19T03:14:20;1.15;;;0.63;;
32475;SDS011;18929;48.008;10.882;2022-09-19T03:16:49;4.43;;;0.75;;
32475;SDS011;18929;48.008;10.882;2022-09-19T03:19:21;0.77;;;0.43;;
32475;SDS011;18929;48.008;10.882;2022-09-19T03:21:51;1.13;;;0.60;;
32475;SDS011;18929;48.008;10.882;2022-09-19T03:24:19;0.80;;;0.50;;
32475;SDS011;18929;48.008;10.882;2022-09-19T03:26:46;1.58;;;0.57;;
32475;SDS011;18929;48.008;10.882;2022-09-19T03:29:14;2.35;;;0.40;;
32475;SDS011;18929;48.008;10.882;2022-09-19T03:31:41;3.10;;;0.60;;
32475;SDS011;18929;48.008;10.882;2022-09-19T03:34:12;2.05;;;0.60;;
32475;SDS011;18929;48.008;10.882;2022-09-19T03:36:39;1.08;;;0.40;;
32475;SDS011;18929;48.008;10.882;2022-09-19T03:39:06;1.10;;;0.40;;
32475;SDS011;18929;48.008;10.882;2022-09-19T03:41:33;1.67;;;0.60;;
32475;SDS011;18929;48.008;10.882;2022-09-19T03:44:03;3.33;;;0.50;;
32475;SDS011;18929;48.008;10.882;2022-09-19T03:46:31;0.80;;;0.40;;
32475;SDS011;18929;48.008;10.882;2022-09-19T03:48:58;1.60;;;0.50;;
32475;SDS011;18929;48.008;10.882;2022-09-19T03:51:28;1.67;;;0.43;;
32475;SDS011;18929;48.008;10.882;2022-09-19T03:53:56;0.40;;;0.30;;
32475;SDS011;18929;48.008;10.882;2022-09-19T03:56:23;0.63;;;0.40;;
32475;SDS011;18929;48.008;10.882;2022-09-19T03:58:51;1.50;;;0.40;;
32475;SDS011;18929;48.008;10.882;2022-09-19T04:01:18;0.82;;;0.40;;
32475;SDS011;18929;48.008;10.882;2022-09-19T04:03:45;0.90;;;0.40;;
32475;SDS011;18929;48.008;10.882;2022-09-19T04:08:45;1.75;;;0.50;;
32475;SDS011;18929;48.008;10.882;2022-09-19T04:11:12;0.75;;;0.30;;
32475;SDS011;18929;48.008;10.882;2022-09-19T04:13:39;3.00;;;0.45;;
32475;SDS011;18929;48.008;10.882;2022-09-19T04:16:06;0.93;;;0.50;;
32475;SDS011;18929;48.008;10.882;2022-09-19T04:18:33;1.08;;;0.45;;
32475;SDS011;18929;48.008;10.882;2022-09-19T04:21:00;2.13;;;0.60;;
32475;SDS011;18929;48.008;10.882;2022-09-19T04:23:28;5.60;;;0.60;;
32475;SDS011;18929;48.008;10.882;2022-09-19T04:25:57;1.52;;;0.45;;
32475;SDS011;18929;48.008;10.882;2022-09-19T04:28:25;2.75;;;0.50;;
32475;SDS011;18929;48.008;10.882;2022-09-19T04:30:52;3.47;;;0.70;;
32475;SDS011;18929;48.008;10.882;2022-09-19T04:33:20;3.28;;;0.63;;
32475;SDS011;18929;48.008;10.882;2022-09-19T04:35:48;0.85;;;0.50;;
32475;SDS011;18929;48.008;10.882;2022-09-19T04:38:16;1.30;;;0.40;;
32475;SDS011;18929;48.008;10.882;2022-09-19T04:40:44;1.98;;;0.60;;
32475;SDS011;18929;48.008;10.882;2022-09-19T04:43:15;2.08;;;0.40;;
32475;SDS011;18929;48.008;10.882;2022-09-19T04:45:43;1.48;;;0.60;;
32475;SDS011;18929;48.008;10.882;2022-09-19T04:48:13;3.17;;;0.77;;
32475;SDS011;18929;48.008;10.882;2022-09-19T04:50:42;2.17;;;0.82;;
32475;SDS011;18929;48.008;10.882;2022-09-19T04:53:10;2.50;;;0.50;;
32475;SDS011;18929;48.008;10.882;2022-09-19T04:59:02;1.10;;;0.70;;
32475;SDS011;18929;48.008;10.882;2022-09-19T05:01:29;3.15;;;0.82;;
32475;SDS011;18929;48.008;10.882;2022-09-19T05:03:57;1.52;;;0.52;;
32475;SDS011;18929;48.008;10.882;2022-09-19T05:06:25;2.33;;;0.75;;
32475;SDS011;18929;48.008;10.882;2022-09-19T05:08:53;1.80;;;0.80;;
32475;SDS011;18929;48.008;10.882;2022-09-19T05:11:21;2.17;;;0.77;;
32475;SDS011;18929;48.008;10.882;2022-09-19T05:13:48;1.15;;;0.50;;
32475;SDS011;18929;48.008;10.882;2022-09-19T05:16:18;3.13;;;0.70;;
32475;SDS011;18929;48.008;10.882;2022-09-19T05:18:45;2.05;;;0.70;;
32475;SDS011;18929;48.008;10.882;2022-09-19T05:21:15;2.38;;;1.10;;
32475;SDS011;18929;48.008;10.882;2022-09-19T05:23:42;2.50;;;0.88;;
32475;SDS011;18929;48.008;10.882;2022-09-19T05:26:10;1.40;;;0.98;;
32475;SDS011;18929;48.008;10.882;2022-09-19T05:28:40;11.02;;;1.13;;
32475;SDS011;18929;48.008;10.882;2022-09-19T05:31:09;2.80;;;0.73;;
32475;SDS011;18929;48.008;10.882;2022-09-19T05:33:39;2.50;;;1.10;;
32475;SDS011;18929;48.008;10.882;2022-09-19T05:36:06;2.08;;;0.70;;
32475;SDS011;18929;48.008;10.882;2022-09-19T05:38:33;3.03;;;1.10;;
32475;SDS011;18929;48.008;10.882;2022-09-19T05:41:01;4.45;;;1.20;;
32475;SDS011;18929;48.008;10.882;2022-09-19T05:43:29;3.75;;;1.08;;
32475;SDS011;18929;48.008;10.882;2022-09-19T05:45:56;3.67;;;1.00;;
32475;SDS011;18929;48.008;10.882;2022-09-19T05:48:24;5.28;;;1.00;;
32475;SDS011;18929;48.008;10.882;2022-09-19T05:50:53;6.82;;;0.90;;
32475;SDS011;18929;48.008;10.882;2022-09-19T05:53:20;4.05;;;0.90;;
32475;SDS011;18929;48.008;10.882;2022-09-19T05:56:05;1.38;;;0.63;;
32475;SDS011;18929;48.008;10.882;2022-09-19T05:58:33;2.97;;;1.00;;
32475;SDS011;18929;48.008;10.882;2022-09-19T06:01:02;3.00;;;0.77;;
32475;SDS011;18929;48.008;10.882;2022-09-19T06:03:30;4.78;;;0.95;;
32475;SDS011;18929;48.008;10.882;2022-09-19T06:06:00;8.43;;;1.10;;
32475;SDS011;18929;48.008;10.882;2022-09-19T06:08:27;5.22;;;1.00;;
32475;SDS011;18929;48.008;10.882;2022-09-19T06:10:54;7.15;;;0.95;;
32475;SDS011;18929;48.008;10.882;2022-09-19T06:13:22;4.55;;;0.90;;
32475;SDS011;18929;48.008;10.882;2022-09-19T06:16:09;6.95;;;1.00;;
32475;SDS011;18929;48.008;10.882;2022-09-19T06:18:36;3.25;;;0.75;;
32475;SDS011;18929;48.008;10.882;2022-09-19T06:21:04;6.57;;;0.80;;
32475;SDS011;18929;48.008;10.882;2022-09-19T06:23:31;7.25;;;1.00;;
32475;SDS011;18929;48.008;10.882;2022-09-19T06:25:58;4.13;;;0.93;;
32475;SDS011;18929;48.008;10.882;2022-09-19T06:28:25;5.18;;;0.80;;
32475;SDS011;18929;48.008;10.882;2022-09-19T06:30:52;4.63;;;0.85;;
32475;SDS011;18929;48.008;10.882;2022-09-19T06:33:19;3.55;;;0.70;;
32475;SDS011;18929;48.008;10.882;2022-09-19T06:35:48;4.43;;;1.08;;
32475;SDS011;18929;48.008;10.882;2022-09-19T06:38:16;5.97;;;0.88;;
32475;SDS011;18929;48.008;10.882;2022-09-19T06:40:43;7.60;;;1.45;;
32475;SDS011;18929;48.008;10.882;2022-09-19T06:43:10;6.43;;;1.00;;
32475;SDS011;18929;48.008;10.882;2022-09-19T06:45:37;5.40;;;1.33;;
32475;SDS011;18929;48.008;10.882;2022-09-19T06:48:05;8.73;;;1.23;;
32475;SDS011;18929;48.008;10.882;2022-09-19T06:50:35;5.75;;;1.00;;
32475;SDS011;18929;48.008;10.882;2022-09-19T06:53:03;10.00;;;1.38;;
32475;SDS011;18929;48.008;10.882;2022-09-19T06:55:31;11.65;;;1.23;;
32475;SDS011;18929;48.008;10.882;2022-09-19T06:57:59;8.43;;;1.40;;
32475;SDS011;18929;48.008;10.882;2022-09-19T07:00:28;6.50;;;1.00;;
32475;SDS011;18929;48.008;10.882;2022-09-19T07:02:58;11.65;;;1.45;;
32475;SDS011;18929;48.008;10.882;2022-09-19T07:05:26;7.70;;;1.58;;
32475;SDS011;18929;48.008;10.882;2022-09-19T07:07:53;14.88;;;1.50;;
32475;SDS011;18929;48.008;10.882;2022-09-19T07:10:20;6.82;;;1.33;;
32475;SDS011;18929;48.008;10.882;2022-09-19T07:12:52;11.05;;;1.20;;
32475;SDS011;18929;48.008;10.882;2022-09-19T07:15:20;5.43;;;1.02;;
32475;SDS011;18929;48.008;10.882;2022-09-19T07:17:48;12.27;;;1.30;;
32475;SDS011;18929;48.008;10.882;2022-09-19T07:20:15;4.07;;;1.08;;
32475;SDS011;18929;48.008;10.882;2022-09-19T07:22:42;8.32;;;1.05;;
32475;SDS011;18929;48.008;10.882;2022-09-19T07:25:09;11.02;;;1.35;;
32475;SDS011;18929;48.008;10.882;2022-09-19T07:27:36;8.45;;;1.00;;
32475;SDS011;18929;48.008;10.882;2022-09-19T07:30:05;7.68;;;1.08;;
32475;SDS011;18929;48.008;10.882;2022-09-19T07:32:33;4.43;;;1.23;;
32475;SDS011;18929;48.008;10.882;2022-09-19T07:35:00;11.80;;;1.20;;
32475;SDS011;18929;48.008;10.882;2022-09-19T07:37:27;9.18;;;1.13;;
32475;SDS011;18929;48.008;10.882;2022-09-19T07:39:53;8.98;;;1.30;;
32475;SDS011;18929;48.008;10.882;2022-09-19T07:42:20;6.13;;;1.05;;
32475;SDS011;18929;48.008;10.882;2022-09-19T07:44:47;9.75;;;1.35;;
32475;SDS011;18929;48.008;10.882;2022-09-19T07:47:16;10.15;;;1.65;;
32475;SDS011;18929;48.008;10.882;2022-09-19T07:49:55;6.35;;;1.33;;
32475;SDS011;18929;48.008;10.882;2022-09-19T07:52:22;9.35;;;1.40;;
32475;SDS011;18929;48.008;10.882;2022-09-19T07:54:49;7.20;;;1.30;;
32475;SDS011;18929;48.008;10.882;2022-09-19T07:57:16;7.05;;;1.48;;
32475;SDS011;18929;48.008;10.882;2022-09-19T07:59:44;9.98;;;1.33;;
32475;SDS011;18929;48.008;10.882;2022-09-19T08:02:12;8.25;;;1.15;;
32475;SDS011;18929;48.008;10.882;2022-09-19T08:04:40;12.52;;;1.38;;
32475;SDS011;18929;48.008;10.882;2022-09-19T08:07:08;7.18;;;1.35;;
32475;SDS011;18929;48.008;10.882;2022-09-19T08:09:35;7.10;;;1.33;;
32475;SDS011;18929;48.008;10.882;2022-09-19T08:12:02;8.95;;;1.38;;
32475;SDS011;18929;48.008;10.882;2022-09-19T08:14:30;10.93;;;1.55;;
32475;SDS011;18929;48.008;10.882;2022-09-19T08:16:57;7.03;;;1.40;;
32475;SDS011;18929;48.008;10.882;2022-09-19T08:19:24;9.60;;;1.35;;
32475;SDS011;18929;48.008;10.882;2022-09-19T08:21:52;7.97;;;1.23;;
32475;SDS011;18929;48.008;10.882;2022-09-19T08:24:19;6.55;;;1.00;;
32475;SDS011;18929;48.008;10.882;2022-09-19T08:26:47;0.98;;;0.40;;
32475;SDS011;18929;48.008;10.882;2022-09-19T08:29:15;6.90;;;1.33;;
32475;SDS011;18929;48.008;10.882;2022-09-19T08:31:42;7.43;;;1.13;;
32475;SDS011;18929;48.008;10.882;2022-09-19T08:34:09;7.68;;;1.25;;
32475;SDS011;18929;48.008;10.882;2022-09-19T08:36:36;6.28;;;1.23;;
32475;SDS011;18929;48.008;10.882;2022-09-19T08:39:05;7.90;;;1.20;;
32475;SDS011;18929;48.008;10.882;2022-09-19T08:41:44;10.13;;;1.40;;
32475;SDS011;18929;48.008;10.882;2022-09-19T08:44:23;6.45;;;1.25;;
32475;SDS011;18929;48.008;10.882;2022-09-19T08:47:01;9.48;;;1.23;;
32475;SDS011;18929;48.008;10.882;2022-09-19T08:49:34;5.30;;;1.30;;
32475;SDS011;18929;48.008;10.882;2022-09-19T08:52:05;7.05;;;1.10;;
32475;SDS011;18929;48.008;10.882;2022-09-19T08:54:39;11.63;;;1.33;;
32475;SDS011;18929;48.008;10.882;2022-09-19T08:57:11;5.70;;;1.15;;
32475;SDS011;18929;48.008;10.882;2022-09-19T08:59:43;22.92;;;2.08;;
32475;SDS011;18929;48.008;10.882;2022-09-19T09:02:16;7.40;;;1.40;;
32475;SDS011;18929;48.008;10.882;2022-09-19T09:04:52;9.18;;;1.50;;
32475;SDS011;18929;48.008;10.882;2022-09-19T09:07:27;8.73;;;1.35;;
32475;SDS011;18929;48.008;10.882;2022-09-19T09:10:12;6.45;;;1.25;;
32475;SDS011;18929;48.008;10.882;2022-09-19T09:12:48;4.00;;;0.95;;
32475;SDS011;18929;48.008;10.882;2022-09-19T09:15:27;7.00;;;1.15;;
32475;SDS011;18929;48.008;10.882;2022-09-19T09:18:10;9.75;;;1.40;;
32475;SDS011;18929;48.008;10.882;2022-09-19T09:20:52;10.65;;;1.30;;
32475;SDS011;18929;48.008;10.882;2022-09-19T09:23:25;6.82;;;1.15;;
32475;SDS011;18929;48.008;10.882;2022-09-19T09:25:58;6.55;;;1.17;;
32475;SDS011;18929;48.008;10.882;2022-09-19T09:28:32;6.35;;;1.05;;
32475;SDS011;18929;48.008;10.882;2022-09-19T09:31:05;7.30;;;1.33;;
32475;SDS011;18929;48.008;10.882;2022-09-19T09:33:38;5.18;;;1.08;;
32475;SDS011;18929;48.008;10.882;2022-09-19T09:36:13;7.30;;;1.17;;
32475;SDS011;18929;48.008;10.882;2022-09-19T09:38:49;3.05;;;0.70;;
32475;SDS011;18929;48.008;10.882;2022-09-19T09:41:21;10.27;;;1.60;;
32475;SDS011;18929;48.008;10.882;2022-09-19T09:44:24;7.00;;;1.20;;
32475;SDS011;18929;48.008;10.882;2022-09-19T09:47:13;5.47;;;1.23;;
32475;SDS011;18929;48.008;10.882;2022-09-19T09:49:50;6.35;;;0.75;;
32475;SDS011;18929;48.008;10.882;2022-09-19T09:52:23;6.13;;;1.02;;
32475;SDS011;18929;48.008;10.882;2022-09-19T09:55:01;5.60;;;0.98;;
32475;SDS011;18929;48.008;10.882;2022-09-19T09:58:00;6.18;;;1.45;;
32475;SDS011;18929;48.008;10.882;2022-09-19T10:00:33;4.32;;;0.98;;
32475;SDS011;18929;48.008;10.882;2022-09-19T10:03:27;3.42;;;0.73;;
32475;SDS011;18929;48.008;10.882;2022-09-19T10:06:09;0.88;;;0.40;;
32475;SDS011;18929;48.008;10.882;2022-09-19T10:08:40;4.95;;;0.60;;
32475;SDS011;18929;48.008;10.882;2022-09-19T10:11:10;3.33;;;0.50;;
32475;SDS011;18929;48.008;10.882;2022-09-19T10:13:45;3.78;;;0.70;;
32475;SDS011;18929;48.008;10.882;2022-09-19T10:16:27;5.18;;;0.93;;
32475;SDS011;18929;48.008;10.882;2022-09-19T10:18:59;4.05;;;0.70;;
32475;SDS011;18929;48.008;10.882;2022-09-19T10:21:29;6.80;;;0.95;;
32475;SDS011;18929;48.008;10.882;2022-09-19T10:23:56;3.58;;;0.50;;
32475;SDS011;18929;48.008;10.882;2022-09-19T10:26:26;2.17;;;0.65;;
32475;SDS011;18929;48.008;10.882;2022-09-19T10:28:57;3.33;;;0.67;;
32475;SDS011;18929;48.008;10.882;2022-09-19T10:31:28;2.67;;;0.70;;
32475;SDS011;18929;48.008;10.882;2022-09-19T10:33:59;5.10;;;0.77;;
32475;SDS011;18929;48.008;10.882;2022-09-19T10:36:29;6.93;;;1.30;;
32475;SDS011;18929;48.008;10.882;2022-09-19T10:38:59;3.22;;;0.68;;
32475;SDS011;18929;48.008;10.882;2022-09-19T10:41:32;5.32;;;1.58;;
32475;SDS011;18929;48.008;10.882;2022-09-19T10:44:02;6.28;;;1.08;;
32475;SDS011;18929;48.008;10.882;2022-09-19T10:46:34;3.47;;;0.95;;
32475;SDS011;18929;48.008;10.882;2022-09-19T10:49:13;2.17;;;0.50;;
32475;SDS011;18929;48.008;10.882;2022-09-19T10:51:44;3.55;;;0.70;;
32475;SDS011;18929;48.008;10.882;2022-09-19T10:54:21;3.38;;;0.60;;
32475;SDS011;18929;48.008;10.882;2022-09-19T10:56:56;3.80;;;0.70;;
32475;SDS011;18929;48.008;10.882;2022-09-19T10:59:27;3.45;;;0.43;;
32475;SDS011;18929;48.008;10.882;2022-09-19T11:02:17;3.72;;;0.52;;
32475;SDS011;18929;48.008;10.882;2022-09-19T11:04:53;3.33;;;0.60;;
32475;SDS011;18929;48.008;10.882;2022-09-19T11:07:26;2.95;;;0.82;;
32475;SDS011;18929;48.008;10.882;2022-09-19T11:09:55;3.33;;;0.70;;
32475;SDS011;18929;48.008;10.882;2022-09-19T11:12:25;3.97;;;0.77;;
32475;SDS011;18929;48.008;10.882;2022-09-19T11:14:57;2.47;;;0.60;;
32475;SDS011;18929;48.008;10.882;2022-09-19T11:20:34;3.45;;;0.63;;
32475;SDS011;18929;48.008;10.882;2022-09-19T11:23:33;1.02;;;0.32;;
32475;SDS011;18929;48.008;10.882;2022-09-19T11:26:27;1.50;;;0.30;;
32475;SDS011;18929;48.008;10.882;2022-09-19T11:29:08;1.88;;;0.40;;
32475;SDS011;18929;48.008;10.882;2022-09-19T11:31:56;2.13;;;0.40;;
32475;SDS011;18929;48.008;10.882;2022-09-19T11:34:34;3.47;;;0.43;;
32475;SDS011;18929;48.008;10.882;2022-09-19T11:37:10;2.13;;;0.40;;
32475;SDS011;18929;48.008;10.882;2022-09-19T11:39:54;1.15;;;0.30;;
32475;SDS011;18929;48.008;10.882;2022-09-19T11:42:32;1.75;;;0.43;;
32475;SDS011;18929;48.008;10.882;2022-09-19T11:45:10;2.40;;;0.52;;
32475;SDS011;18929;48.008;10.882;2022-09-19T11:47:43;1.75;;;0.50;;
32475;SDS011;18929;48.008;10.882;2022-09-19T11:50:46;4.28;;;0.70;;
32475;SDS011;18929;48.008;10.882;2022-09-19T11:53:31;4.20;;;0.70;;
32475;SDS011;18929;48.008;10.882;2022-09-19T12:01:59;4.07;;;0.60;;
32475;SDS011;18929;48.008;10.882;2022-09-19T12:04:50;4.93;;;0.60;;
32475;SDS011;18929;48.008;10.882;2022-09-19T12:07:29;2.65;;;0.50;;
32475;SDS011;18929;48.008;10.882;2022-09-19T12:10:03;3.63;;;0.70;;
32475;SDS011;18929;48.008;10.882;2022-09-19T12:12:38;2.85;;;0.65;;
32475;SDS011;18929;48.008;10.882;2022-09-19T12:15:15;4.00;;;0.90;;
32475;SDS011;18929;48.008;10.882;2022-09-19T12:17:51;5.05;;;0.77;;
32475;SDS011;18929;48.008;10.882;2022-09-19T12:20:25;5.30;;;0.85;;
32475;SDS011;18929;48.008;10.882;2022-09-19T12:22:57;3.33;;;0.50;;
32475;SDS011;18929;48.008;10.882;2022-09-19T12:25:50;3.33;;;0.52;;
32475;SDS011;18929;48.008;10.882;2022-09-19T12:28:20;1.75;;;0.38;;
32475;SDS011;18929;48.008;10.882;2022-09-19T12:30:49;2.97;;;0.80;;
32475;SDS011;18929;48.008;10.882;2022-09-19T12:33:27;2.97;;;0.60;;
32475;SDS011;18929;48.008;10.882;2022-09-19T12:36:02;3.38;;;0.70;;
32475;SDS011;18929;48.008;10.882;2022-09-19T12:38:34;3.88;;;0.50;;
32475;SDS011;18929;48.008;10.882;2022-09-19T12:41:08;1.98;;;0.60;;
32475;SDS011;18929;48.008;10.882;2022-09-19T12:43:41;3.80;;;0.80;;
32475;SDS011;18929;48.008;10.882;2022-09-19T12:46:21;2.90;;;0.60;;
32475;SDS011;18929;48.008;10.882;2022-09-19T12:49:01;3.60;;;0.70;;
32475;SDS011;18929;48.008;10.882;2022-09-19T12:51:42;1.73;;;0.40;;
32475;SDS011;18929;48.008;10.882;2022-09-19T12:54:15;2.67;;;0.60;;
32475;SDS011;18929;48.008;10.882;2022-09-19T12:56:46;2.63;;;0.35;;
32475;SDS011;18929;48.008;10.882;2022-09-19T12:59:17;1.98;;;0.60;;
32475;SDS011;18929;48.008;10.882;2022-09-19T13:01:48;2.22;;;0.70;;
32475;SDS011;18929;48.008;10.882;2022-09-19T13:04:26;2.25;;;0.70;;
32475;SDS011;18929;48.008;10.882;2022-09-19T13:07:02;2.15;;;0.40;;
32475;SDS011;18929;48.008;10.882;2022-09-19T13:09:37;3.50;;;0.60;;
32475;SDS011;18929;48.008;10.882;2022-09-19T13:12:12;1.25;;;0.40;;
32475;SDS011;18929;48.008;10.882;2022-09-19T13:14:44;1.38;;;0.52;;
32475;SDS011;18929;48.008;10.882;2022-09-19T13:17:14;1.70;;;0.63;;
32475;SDS011;18929;48.008;10.882;2022-09-19T13:19:59;4.28;;;1.20;;
32475;SDS011;18929;48.008;10.882;2022-09-19T13:22:48;1.42;;;0.60;;
32475;SDS011;18929;48.008;10.882;2022-09-19T13:25:33;1.58;;;0.40;;
32475;SDS011;18929;48.008;10.882;2022-09-19T13:30:58;1.48;;;0.50;;
32475;SDS011;18929;48.008;10.882;2022-09-19T13:33:38;2.53;;;0.60;;
32475;SDS011;18929;48.008;10.882;2022-09-19T13:36:10;2.60;;;0.50;;
32475;SDS011;18929;48.008;10.882;2022-09-19T13:38:40;1.65;;;0.32;;
32475;SDS011;18929;48.008;10.882;2022-09-19T13:41:13;1.35;;;0.30;;
32475;SDS011;18929;48.008;10.882;2022-09-19T13:43:53;4.18;;;0.30;;
32475;SDS011;18929;48.008;10.882;2022-09-19T13:46:27;2.33;;;0.43;;
32475;SDS011;18929;48.008;10.882;2022-09-19T13:49:00;1.60;;;0.50;;
32475;SDS011;18929;48.008;10.882;2022-09-19T13:51:38;2.67;;;0.43;;
32475;SDS011;18929;48.008;10.882;2022-09-19T13:57:15;2.75;;;0.30;;
32475;SDS011;18929;48.008;10.882;2022-09-19T13:59:47;1.52;;;0.30;;
32475;SDS011;18929;48.008;10.882;2022-09-19T14:02:26;1.55;;;0.35;;
32475;SDS011;18929;48.008;10.882;2022-09-19T14:05:04;4.00;;;0.30;;
32475;SDS011;18929;48.008;10.882;2022-09-19T14:07:42;0.63;;;0.20;;
32475;SDS011;18929;48.008;10.882;2022-09-19T14:10:17;1.25;;;0.28;;
32475;SDS011;18929;48.008;10.882;2022-09-19T14:12:59;2.25;;;0.45;;
32475;SDS011;18929;48.008;10.882;2022-09-19T14:27:20;3.58;;;0.30;;
32475;SDS011;18929;48.008;10.882;2022-09-19T14:30:29;2.95;;;0.40;;
32475;SDS011;18929;48.008;10.882;2022-09-19T14:33:15;1.08;;;0.30;;
32475;SDS011;18929;48.008;10.882;2022-09-19T14:36:09;1.95;;;0.35;;
32475;SDS011;18929;48.008;10.882;2022-09-19T14:38:48;2.85;;;0.50;;
32475;SDS011;18929;48.008;10.882;2022-09-19T14:41:38;1.38;;;0.40;;
32475;SDS011;18929;48.008;10.882;2022-09-19T14:44:39;0.95;;;0.32;;
32475;SDS011;18929;48.008;10.882;2022-09-19T14:47:18;1.10;;;0.40;;
32475;SDS011;18929;48.008;10.882;2022-09-19T14:49:51;2.53;;;0.40;;
32475;SDS011;18929;48.008;10.882;2022-09-19T14:52:24;1.27;;;0.40;;
32475;SDS011;18929;48.008;10.882;2022-09-19T14:54:56;3.72;;;0.50;;
32475;SDS011;18929;48.008;10.882;2022-09-19T14:57:25;2.92;;;0.40;;
32475;SDS011;18929;48.008;10.882;2022-09-19T14:59:53;4.45;;;0.50;;
32475;SDS011;18929;48.008;10.882;2022-09-19T15:02:38;1.15;;;0.30;;
32475;SDS011;18929;48.008;10.882;2022-09-19T15:05:13;0.45;;;0.22;;
32475;SDS011;18929;48.008;10.882;2022-09-19T15:07:42;0.77;;;0.20;;
32475;SDS011;18929;48.008;10.882;2022-09-19T15:10:20;0.77;;;0.22;;
32475;SDS011;18929;48.008;10.882;2022-09-19T15:12:55;1.17;;;0.40;;
32475;SDS011;18929;48.008;10.882;2022-09-19T15:15:25;1.65;;;0.40;;
32475;SDS011;18929;48.008;10.882;2022-09-19T15:17:56;1.25;;;0.45;;
32475;SDS011;18929;48.008;10.882;2022-09-19T15:20:23;2.47;;;0.45;;
32475;SDS011;18929;48.008;10.882;2022-09-19T15:22:51;2.47;;;0.65;;
32475;SDS011;18929;48.008;10.882;2022-09-19T15:25:21;1.55;;;0.30;;
32475;SDS011;18929;48.008;10.882;2022-09-19T15:27:54;1.25;;;0.30;;
32475;SDS011;18929;48.008;10.882;2022-09-19T15:33:43;1.55;;;0.30;;
32475;SDS011;18929;48.008;10.882;2022-09-19T15:36:13;2.13;;;0.50;;
32475;SDS011;18929;48.008;10.882;2022-09-19T15:38:43;2.08;;;0.50;;
32475;SDS011;18929;48.008;10.882;2022-09-19T15:41:12;1.90;;;0.40;;